Overview Statistics Trail Chart Weather Telemetry Raw packets
 

This is the latest recevied weather packets stored in our database for station/object KB4MOX. If no packets are shown the sender has not sent any weather packets the latest 10 day(s).

<< 59 60 61 62 63 64 65 >>
Time Temp. Humidity Pressure Rain* Wind** Luminosity Snow
1788210872 33.89° C 48% 1018.3 hPa 0 mm - 386 W/m² -
1788210571 32.78° C 49% 1018.2 hPa 0 mm - 405 W/m² -
1788210267 33.33° C 48% 1018.4 hPa 0 mm - 61 W/m² -
1788209962 33.89° C 49% 1018.3 hPa 0 mm - 56 W/m² -
1788209658 34.44° C 49% 1018.3 hPa 0 mm - 448 W/m² -
1788209353 33.89° C 50% 1018.4 hPa 0 mm - 462 W/m² -
1788209052 34.44° C 49% 1018.3 hPa 0 mm - 480 W/m² -
1788208752 33.89° C 51% 1018.4 hPa 0 mm - 496 W/m² -
1788208447 33.89° C 51% 1018.6 hPa 0 mm - 517 W/m² -
1788208145 33.89° C 49% 1018.4 hPa 0 mm - 542 W/m² -
1788207840 34.44° C 47% 1018.3 hPa 0 mm - 556 W/m² -
1788207539 34.44° C 47% 1018.6 hPa 0 mm - 564 W/m² -
1788207238 34.44° C 48% 1018.5 hPa 0 mm - 580 W/m² -
1788206935 33.89° C 50% 1018.5 hPa 0 mm - 589 W/m² -
1788206629 33.89° C 50% 1018.6 hPa 0 mm - 597 W/m² -
1788206324 32.78° C 54% 1018.7 hPa 0 mm - 620 W/m² -
1788206020 33.33° C 53% 1018.7 hPa 0 mm - 123 W/m² -
1788205716 33.89° C 50% 1018.8 hPa 0 mm - 171 W/m² -
1788205411 34.44° C 49% 1018.8 hPa 0 mm - 707 W/m² -
1788205110 34.44° C 49% 1018.9 hPa 0 mm - 707 W/m² -
1788204805 33.89° C 50% 1019.1 hPa 0 mm - 690 W/m² -
1788204500 33.89° C 50% 1019.3 hPa 0 mm - 687 W/m² -
1788204195 33.33° C 52% 1019.2 hPa 0 mm - 696 W/m² -
1788203891 32.78° C 52% 1019.3 hPa 0 mm - 713 W/m² -
1788203587 32.78° C 54% 1019.3 hPa 0 mm - 142 W/m² -

* Rain latest hour (hover to see other rain measurements)
** Current wind speed in m/s (hover to see current wind gust speed)